Leon/Virgen Del Camino, Spain
Current Conditions -  °F | °C
As of 10:00 AM on Tuesday 21 Oct 2014 (Local Time) from LELN Reporting Station
Clear Clear  
Wind Chill: 57°   Ceiling: Unl
Heat Index: 57°   Visibility: 6mi
Dew Point: 45°   Wind: 3mph
Humidity: 63%   Direction: 260°W
Pressure: 30.36"   Gusts: NA
Location:  42.58°N, 5.64°W
Report Text: LELN 210800Z 26003KT CAVOK 14/07 Q1028
Loading
Personal Weather Stations






























Interactive Weather Map
Tropical Storm Tracking
New forecast layout! Learn more

10-Day Weather Forecast

Advertisements
Track Severe Weather on mobile